sensor_id;sensor_type;location;lat;lon;timestamp;P1;durP1;ratioP1;P2;durP2;ratioP2
7657;SDS011;8462;53.156;8.220;2022-09-24T00:00:42;22.00;;;16.03;;
7657;SDS011;8462;53.156;8.220;2022-09-24T00:03:09;20.17;;;15.97;;
7657;SDS011;8462;53.156;8.220;2022-09-24T00:05:37;22.63;;;15.53;;
7657;SDS011;8462;53.156;8.220;2022-09-24T00:08:06;20.67;;;15.53;;
7657;SDS011;8462;53.156;8.220;2022-09-24T00:10:35;21.33;;;15.63;;
7657;SDS011;8462;53.156;8.220;2022-09-24T00:13:04;24.07;;;16.20;;
7657;SDS011;8462;53.156;8.220;2022-09-24T00:15:34;21.40;;;15.83;;
7657;SDS011;8462;53.156;8.220;2022-09-24T00:18:02;25.13;;;16.20;;
7657;SDS011;8462;53.156;8.220;2022-09-24T00:20:29;24.77;;;16.73;;
7657;SDS011;8462;53.156;8.220;2022-09-24T00:22:57;22.73;;;15.80;;
7657;SDS011;8462;53.156;8.220;2022-09-24T00:25:25;21.73;;;16.23;;
7657;SDS011;8462;53.156;8.220;2022-09-24T00:28:11;20.90;;;15.53;;
7657;SDS011;8462;53.156;8.220;2022-09-24T00:30:39;21.90;;;15.83;;
7657;SDS011;8462;53.156;8.220;2022-09-24T00:33:06;22.90;;;15.97;;
7657;SDS011;8462;53.156;8.220;2022-09-24T00:35:34;22.27;;;16.23;;
7657;SDS011;8462;53.156;8.220;2022-09-24T00:38:02;22.23;;;15.97;;
7657;SDS011;8462;53.156;8.220;2022-09-24T00:40:32;22.50;;;16.57;;
7657;SDS011;8462;53.156;8.220;2022-09-24T00:43:01;25.03;;;17.43;;
7657;SDS011;8462;53.156;8.220;2022-09-24T00:45:28;24.27;;;17.00;;
7657;SDS011;8462;53.156;8.220;2022-09-24T00:47:57;23.20;;;17.23;;
7657;SDS011;8462;53.156;8.220;2022-09-24T00:50:25;21.63;;;15.80;;
7657;SDS011;8462;53.156;8.220;2022-09-24T00:52:57;22.97;;;16.73;;
7657;SDS011;8462;53.156;8.220;2022-09-24T00:55:26;22.23;;;16.57;;
7657;SDS011;8462;53.156;8.220;2022-09-24T00:57:56;22.23;;;15.93;;
7657;SDS011;8462;53.156;8.220;2022-09-24T01:00:25;24.40;;;16.03;;
7657;SDS011;8462;53.156;8.220;2022-09-24T01:02:53;23.77;;;17.43;;
7657;SDS011;8462;53.156;8.220;2022-09-24T01:05:23;22.27;;;15.33;;
7657;SDS011;8462;53.156;8.220;2022-09-24T01:07:50;24.40;;;16.70;;
7657;SDS011;8462;53.156;8.220;2022-09-24T01:10:17;23.40;;;16.23;;
7657;SDS011;8462;53.156;8.220;2022-09-24T01:13:07;22.87;;;16.20;;
7657;SDS011;8462;53.156;8.220;2022-09-24T01:15:41;21.07;;;16.07;;
7657;SDS011;8462;53.156;8.220;2022-09-24T01:18:15;23.67;;;16.03;;
7657;SDS011;8462;53.156;8.220;2022-09-24T01:24:07;22.17;;;16.30;;
7657;SDS011;8462;53.156;8.220;2022-09-24T01:26:53;21.00;;;14.70;;
7657;SDS011;8462;53.156;8.220;2022-09-24T01:29:38;23.47;;;16.53;;
7657;SDS011;8462;53.156;8.220;2022-09-24T01:32:13;24.60;;;16.67;;
7657;SDS011;8462;53.156;8.220;2022-09-24T01:34:45;23.87;;;16.43;;
7657;SDS011;8462;53.156;8.220;2022-09-24T01:37:15;25.07;;;16.73;;
7657;SDS011;8462;53.156;8.220;2022-09-24T01:39:46;27.10;;;18.37;;
7657;SDS011;8462;53.156;8.220;2022-09-24T01:42:15;22.80;;;16.90;;
7657;SDS011;8462;53.156;8.220;2022-09-24T01:44:45;23.47;;;16.43;;
7657;SDS011;8462;53.156;8.220;2022-09-24T01:47:15;24.80;;;17.80;;
7657;SDS011;8462;53.156;8.220;2022-09-24T01:49:46;26.07;;;18.10;;
7657;SDS011;8462;53.156;8.220;2022-09-24T01:52:17;25.30;;;16.93;;
7657;SDS011;8462;53.156;8.220;2022-09-24T01:54:46;25.83;;;16.53;;
7657;SDS011;8462;53.156;8.220;2022-09-24T01:57:17;29.03;;;18.30;;
7657;SDS011;8462;53.156;8.220;2022-09-24T01:59:50;27.80;;;17.77;;
7657;SDS011;8462;53.156;8.220;2022-09-24T02:02:22;28.37;;;18.00;;
7657;SDS011;8462;53.156;8.220;2022-09-24T02:04:55;26.13;;;18.30;;
7657;SDS011;8462;53.156;8.220;2022-09-24T02:07:25;29.00;;;17.13;;
7657;SDS011;8462;53.156;8.220;2022-09-24T02:09:57;27.67;;;18.33;;
7657;SDS011;8462;53.156;8.220;2022-09-24T02:12:25;27.73;;;19.00;;
7657;SDS011;8462;53.156;8.220;2022-09-24T02:14:57;25.97;;;18.07;;
7657;SDS011;8462;53.156;8.220;2022-09-24T02:17:28;29.83;;;19.43;;
7657;SDS011;8462;53.156;8.220;2022-09-24T02:19:57;26.00;;;18.47;;
7657;SDS011;8462;53.156;8.220;2022-09-24T02:22:28;29.13;;;19.03;;
7657;SDS011;8462;53.156;8.220;2022-09-24T02:24:56;28.97;;;19.43;;
7657;SDS011;8462;53.156;8.220;2022-09-24T02:27:25;29.13;;;19.73;;
7657;SDS011;8462;53.156;8.220;2022-09-24T02:29:53;30.13;;;18.97;;
7657;SDS011;8462;53.156;8.220;2022-09-24T02:32:21;28.40;;;18.83;;
7657;SDS011;8462;53.156;8.220;2022-09-24T02:34:50;29.93;;;19.83;;
7657;SDS011;8462;53.156;8.220;2022-09-24T02:37:20;31.60;;;20.23;;
7657;SDS011;8462;53.156;8.220;2022-09-24T02:39:48;33.17;;;21.27;;
7657;SDS011;8462;53.156;8.220;2022-09-24T02:42:15;31.17;;;20.60;;
7657;SDS011;8462;53.156;8.220;2022-09-24T02:44:44;30.70;;;20.60;;
7657;SDS011;8462;53.156;8.220;2022-09-24T02:47:11;36.37;;;21.27;;
7657;SDS011;8462;53.156;8.220;2022-09-24T02:49:39;33.87;;;20.93;;
7657;SDS011;8462;53.156;8.220;2022-09-24T02:52:06;30.13;;;20.93;;
7657;SDS011;8462;53.156;8.220;2022-09-24T02:54:34;33.20;;;22.83;;
7657;SDS011;8462;53.156;8.220;2022-09-24T02:57:02;37.27;;;22.73;;
7657;SDS011;8462;53.156;8.220;2022-09-24T02:59:29;33.73;;;23.07;;
7657;SDS011;8462;53.156;8.220;2022-09-24T03:01:56;34.43;;;23.27;;
7657;SDS011;8462;53.156;8.220;2022-09-24T03:04:22;36.97;;;23.10;;
7657;SDS011;8462;53.156;8.220;2022-09-24T03:06:51;37.30;;;23.70;;
7657;SDS011;8462;53.156;8.220;2022-09-24T03:09:18;34.03;;;23.20;;
7657;SDS011;8462;53.156;8.220;2022-09-24T03:11:45;38.47;;;23.23;;
7657;SDS011;8462;53.156;8.220;2022-09-24T03:14:12;38.07;;;24.97;;
7657;SDS011;8462;53.156;8.220;2022-09-24T03:16:39;41.47;;;24.63;;
7657;SDS011;8462;53.156;8.220;2022-09-24T03:19:06;36.60;;;24.63;;
7657;SDS011;8462;53.156;8.220;2022-09-24T03:21:33;38.27;;;24.27;;
7657;SDS011;8462;53.156;8.220;2022-09-24T03:24:02;39.27;;;24.03;;
7657;SDS011;8462;53.156;8.220;2022-09-24T03:26:29;38.77;;;25.03;;
7657;SDS011;8462;53.156;8.220;2022-09-24T03:28:56;40.90;;;25.57;;
7657;SDS011;8462;53.156;8.220;2022-09-24T03:31:23;42.30;;;26.07;;
7657;SDS011;8462;53.156;8.220;2022-09-24T03:33:49;44.00;;;25.27;;
7657;SDS011;8462;53.156;8.220;2022-09-24T03:36:17;37.70;;;23.97;;
7657;SDS011;8462;53.156;8.220;2022-09-24T03:38:47;42.30;;;24.87;;
7657;SDS011;8462;53.156;8.220;2022-09-24T03:41:16;43.60;;;27.10;;
7657;SDS011;8462;53.156;8.220;2022-09-24T03:43:43;40.87;;;24.47;;
7657;SDS011;8462;53.156;8.220;2022-09-24T03:46:10;46.23;;;26.47;;
7657;SDS011;8462;53.156;8.220;2022-09-24T03:48:38;48.27;;;27.50;;
7657;SDS011;8462;53.156;8.220;2022-09-24T03:51:06;49.97;;;28.07;;
7657;SDS011;8462;53.156;8.220;2022-09-24T03:53:35;49.73;;;29.07;;
7657;SDS011;8462;53.156;8.220;2022-09-24T03:56:02;47.43;;;27.87;;
7657;SDS011;8462;53.156;8.220;2022-09-24T03:58:32;44.17;;;27.67;;
7657;SDS011;8462;53.156;8.220;2022-09-24T04:01:02;48.27;;;26.83;;
7657;SDS011;8462;53.156;8.220;2022-09-24T04:03:28;54.20;;;28.23;;
7657;SDS011;8462;53.156;8.220;2022-09-24T04:05:56;50.60;;;27.87;;
7657;SDS011;8462;53.156;8.220;2022-09-24T04:08:22;42.97;;;27.73;;
7657;SDS011;8462;53.156;8.220;2022-09-24T04:10:50;47.17;;;26.87;;
7657;SDS011;8462;53.156;8.220;2022-09-24T04:13:17;52.83;;;31.17;;
7657;SDS011;8462;53.156;8.220;2022-09-24T04:15:46;52.73;;;28.53;;
7657;SDS011;8462;53.156;8.220;2022-09-24T04:18:14;48.37;;;27.83;;
7657;SDS011;8462;53.156;8.220;2022-09-24T04:20:41;54.67;;;30.37;;
7657;SDS011;8462;53.156;8.220;2022-09-24T04:23:08;51.77;;;29.23;;
7657;SDS011;8462;53.156;8.220;2022-09-24T04:25:35;51.07;;;29.50;;
7657;SDS011;8462;53.156;8.220;2022-09-24T04:28:05;51.33;;;29.60;;
7657;SDS011;8462;53.156;8.220;2022-09-24T04:30:33;57.10;;;30.13;;
7657;SDS011;8462;53.156;8.220;2022-09-24T04:33:02;52.37;;;29.07;;
7657;SDS011;8462;53.156;8.220;2022-09-24T04:35:30;53.43;;;30.53;;
7657;SDS011;8462;53.156;8.220;2022-09-24T04:38:00;53.43;;;30.53;;
7657;SDS011;8462;53.156;8.220;2022-09-24T04:40:28;53.00;;;30.37;;
7657;SDS011;8462;53.156;8.220;2022-09-24T04:42:55;49.17;;;29.80;;
7657;SDS011;8462;53.156;8.220;2022-09-24T04:45:22;50.53;;;28.13;;
7657;SDS011;8462;53.156;8.220;2022-09-24T04:47:51;57.23;;;30.57;;
7657;SDS011;8462;53.156;8.220;2022-09-24T04:50:21;56.50;;;31.03;;
7657;SDS011;8462;53.156;8.220;2022-09-24T04:52:51;51.80;;;30.60;;
7657;SDS011;8462;53.156;8.220;2022-09-24T04:55:18;57.23;;;31.00;;
7657;SDS011;8462;53.156;8.220;2022-09-24T04:57:46;57.03;;;30.17;;
7657;SDS011;8462;53.156;8.220;2022-09-24T05:00:16;60.93;;;31.77;;
7657;SDS011;8462;53.156;8.220;2022-09-24T05:02:44;57.37;;;33.00;;
7657;SDS011;8462;53.156;8.220;2022-09-24T05:05:12;57.77;;;31.90;;
7657;SDS011;8462;53.156;8.220;2022-09-24T05:07:40;50.90;;;31.53;;
7657;SDS011;8462;53.156;8.220;2022-09-24T05:10:08;51.80;;;31.10;;
7657;SDS011;8462;53.156;8.220;2022-09-24T05:12:35;51.87;;;31.23;;
7657;SDS011;8462;53.156;8.220;2022-09-24T05:15:02;53.00;;;30.33;;
7657;SDS011;8462;53.156;8.220;2022-09-24T05:17:30;51.67;;;29.93;;
7657;SDS011;8462;53.156;8.220;2022-09-24T05:19:57;54.37;;;30.10;;
7657;SDS011;8462;53.156;8.220;2022-09-24T05:22:25;50.03;;;29.37;;
7657;SDS011;8462;53.156;8.220;2022-09-24T05:24:53;49.13;;;29.47;;
7657;SDS011;8462;53.156;8.220;2022-09-24T05:27:20;50.53;;;29.00;;
7657;SDS011;8462;53.156;8.220;2022-09-24T05:29:47;52.43;;;30.13;;
7657;SDS011;8462;53.156;8.220;2022-09-24T05:32:15;55.63;;;28.83;;
7657;SDS011;8462;53.156;8.220;2022-09-24T05:34:43;46.80;;;29.20;;
7657;SDS011;8462;53.156;8.220;2022-09-24T05:37:11;48.03;;;28.57;;
7657;SDS011;8462;53.156;8.220;2022-09-24T05:39:39;53.40;;;29.70;;
7657;SDS011;8462;53.156;8.220;2022-09-24T05:42:09;51.23;;;28.63;;
7657;SDS011;8462;53.156;8.220;2022-09-24T05:44:38;56.07;;;28.97;;
7657;SDS011;8462;53.156;8.220;2022-09-24T05:47:05;45.30;;;28.03;;
7657;SDS011;8462;53.156;8.220;2022-09-24T05:49:32;47.87;;;27.43;;
7657;SDS011;8462;53.156;8.220;2022-09-24T05:51:59;44.87;;;27.30;;
7657;SDS011;8462;53.156;8.220;2022-09-24T05:54:26;46.17;;;26.50;;
7657;SDS011;8462;53.156;8.220;2022-09-24T05:56:54;43.30;;;26.13;;
7657;SDS011;8462;53.156;8.220;2022-09-24T05:59:22;41.97;;;26.80;;
7657;SDS011;8462;53.156;8.220;2022-09-24T06:01:49;48.40;;;26.53;;
7657;SDS011;8462;53.156;8.220;2022-09-24T06:04:17;37.10;;;24.60;;
7657;SDS011;8462;53.156;8.220;2022-09-24T06:06:44;48.50;;;26.77;;
7657;SDS011;8462;53.156;8.220;2022-09-24T06:09:10;43.57;;;25.17;;
7657;SDS011;8462;53.156;8.220;2022-09-24T06:11:38;45.47;;;25.60;;
7657;SDS011;8462;53.156;8.220;2022-09-24T06:14:06;39.27;;;25.23;;
7657;SDS011;8462;53.156;8.220;2022-09-24T06:16:35;45.37;;;25.20;;
7657;SDS011;8462;53.156;8.220;2022-09-24T06:19:02;40.53;;;25.00;;
7657;SDS011;8462;53.156;8.220;2022-09-24T06:21:29;39.90;;;25.07;;
7657;SDS011;8462;53.156;8.220;2022-09-24T06:23:56;42.00;;;25.10;;
7657;SDS011;8462;53.156;8.220;2022-09-24T06:26:22;41.90;;;25.87;;
7657;SDS011;8462;53.156;8.220;2022-09-24T06:28:51;34.90;;;22.53;;
7657;SDS011;8462;53.156;8.220;2022-09-24T06:31:18;40.10;;;23.37;;
7657;SDS011;8462;53.156;8.220;2022-09-24T06:33:47;38.27;;;24.63;;
7657;SDS011;8462;53.156;8.220;2022-09-24T06:36:13;35.53;;;22.30;;
7657;SDS011;8462;53.156;8.220;2022-09-24T06:38:40;39.37;;;24.77;;
7657;SDS011;8462;53.156;8.220;2022-09-24T06:41:09;39.23;;;24.73;;
7657;SDS011;8462;53.156;8.220;2022-09-24T06:43:39;34.03;;;22.50;;
7657;SDS011;8462;53.156;8.220;2022-09-24T06:46:06;37.27;;;23.47;;
7657;SDS011;8462;53.156;8.220;2022-09-24T06:48:34;37.63;;;24.73;;
7657;SDS011;8462;53.156;8.220;2022-09-24T06:51:04;36.23;;;22.63;;
7657;SDS011;8462;53.156;8.220;2022-09-24T06:53:31;38.50;;;24.43;;
7657;SDS011;8462;53.156;8.220;2022-09-24T06:55:58;37.33;;;23.07;;
7657;SDS011;8462;53.156;8.220;2022-09-24T06:58:27;34.77;;;23.10;;
7657;SDS011;8462;53.156;8.220;2022-09-24T07:00:55;40.27;;;24.77;;
7657;SDS011;8462;53.156;8.220;2022-09-24T07:03:23;38.60;;;23.73;;
7657;SDS011;8462;53.156;8.220;2022-09-24T07:05:51;37.90;;;25.10;;
7657;SDS011;8462;53.156;8.220;2022-09-24T07:08:20;41.17;;;25.60;;
7657;SDS011;8462;53.156;8.220;2022-09-24T07:10:47;36.97;;;24.37;;
7657;SDS011;8462;53.156;8.220;2022-09-24T07:13:16;37.90;;;23.97;;
7657;SDS011;8462;53.156;8.220;2022-09-24T07:15:45;36.07;;;24.20;;
7657;SDS011;8462;53.156;8.220;2022-09-24T07:18:14;38.40;;;25.30;;
7657;SDS011;8462;53.156;8.220;2022-09-24T07:20:41;34.53;;;23.50;;
7657;SDS011;8462;53.156;8.220;2022-09-24T07:23:09;35.97;;;23.83;;
7657;SDS011;8462;53.156;8.220;2022-09-24T07:25:38;37.60;;;25.70;;
7657;SDS011;8462;53.156;8.220;2022-09-24T07:28:06;35.90;;;25.33;;
7657;SDS011;8462;53.156;8.220;2022-09-24T07:30:34;40.13;;;26.53;;
7657;SDS011;8462;53.156;8.220;2022-09-24T07:33:01;36.27;;;24.83;;
7657;SDS011;8462;53.156;8.220;2022-09-24T07:35:29;39.97;;;25.77;;
7657;SDS011;8462;53.156;8.220;2022-09-24T07:37:57;35.53;;;24.93;;
7657;SDS011;8462;53.156;8.220;2022-09-24T07:40:25;36.17;;;24.60;;
7657;SDS011;8462;53.156;8.220;2022-09-24T07:42:55;40.83;;;25.73;;
7657;SDS011;8462;53.156;8.220;2022-09-24T07:45:23;37.97;;;24.73;;
7657;SDS011;8462;53.156;8.220;2022-09-24T07:47:55;35.27;;;24.57;;
7657;SDS011;8462;53.156;8.220;2022-09-24T07:50:23;35.20;;;23.07;;
7657;SDS011;8462;53.156;8.220;2022-09-24T07:52:51;41.13;;;24.70;;
7657;SDS011;8462;53.156;8.220;2022-09-24T07:55:18;39.90;;;23.90;;
7657;SDS011;8462;53.156;8.220;2022-09-24T07:57:46;38.30;;;24.20;;
7657;SDS011;8462;53.156;8.220;2022-09-24T08:00:15;35.40;;;23.70;;
7657;SDS011;8462;53.156;8.220;2022-09-24T08:02:43;35.60;;;23.43;;
7657;SDS011;8462;53.156;8.220;2022-09-24T08:05:10;39.97;;;25.10;;
7657;SDS011;8462;53.156;8.220;2022-09-24T08:07:39;35.93;;;22.77;;
7657;SDS011;8462;53.156;8.220;2022-09-24T08:10:07;32.33;;;21.10;;
7657;SDS011;8462;53.156;8.220;2022-09-24T08:12:34;35.47;;;23.17;;
7657;SDS011;8462;53.156;8.220;2022-09-24T08:15:01;32.63;;;21.43;;
7657;SDS011;8462;53.156;8.220;2022-09-24T08:17:29;36.57;;;22.57;;
7657;SDS011;8462;53.156;8.220;2022-09-24T08:19:57;29.40;;;20.43;;
7657;SDS011;8462;53.156;8.220;2022-09-24T08:22:23;34.10;;;21.13;;
7657;SDS011;8462;53.156;8.220;2022-09-24T08:24:50;39.77;;;23.50;;
7657;SDS011;8462;53.156;8.220;2022-09-24T08:27:18;35.23;;;21.63;;
7657;SDS011;8462;53.156;8.220;2022-09-24T08:29:46;33.07;;;22.23;;
7657;SDS011;8462;53.156;8.220;2022-09-24T08:32:13;33.33;;;21.27;;
7657;SDS011;8462;53.156;8.220;2022-09-24T08:34:42;37.43;;;22.50;;
7657;SDS011;8462;53.156;8.220;2022-09-24T08:37:09;36.13;;;22.83;;
7657;SDS011;8462;53.156;8.220;2022-09-24T08:39:37;32.73;;;21.83;;
7657;SDS011;8462;53.156;8.220;2022-09-24T08:42:05;33.53;;;20.37;;
7657;SDS011;8462;53.156;8.220;2022-09-24T08:44:38;29.63;;;19.70;;
7657;SDS011;8462;53.156;8.220;2022-09-24T08:47:31;30.73;;;19.80;;
7657;SDS011;8462;53.156;8.220;2022-09-24T08:50:05;27.10;;;19.57;;
7657;SDS011;8462;53.156;8.220;2022-09-24T08:52:47;28.80;;;19.07;;
7657;SDS011;8462;53.156;8.220;2022-09-24T08:55:23;29.13;;;19.17;;
7657;SDS011;8462;53.156;8.220;2022-09-24T08:58:04;31.80;;;20.10;;
7657;SDS011;8462;53.156;8.220;2022-09-24T09:00:50;27.80;;;18.27;;
7657;SDS011;8462;53.156;8.220;2022-09-24T09:03:23;30.30;;;18.03;;
7657;SDS011;8462;53.156;8.220;2022-09-24T09:06:02;32.70;;;19.80;;
7657;SDS011;8462;53.156;8.220;2022-09-24T09:08:37;28.63;;;18.33;;
7657;SDS011;8462;53.156;8.220;2022-09-24T09:11:10;26.77;;;17.57;;
7657;SDS011;8462;53.156;8.220;2022-09-24T09:13:41;25.00;;;17.70;;
7657;SDS011;8462;53.156;8.220;2022-09-24T09:16:14;27.13;;;17.80;;
7657;SDS011;8462;53.156;8.220;2022-09-24T09:18:48;29.97;;;17.80;;
7657;SDS011;8462;53.156;8.220;2022-09-24T09:21:21;30.53;;;18.80;;
7657;SDS011;8462;53.156;8.220;2022-09-24T09:23:53;32.57;;;17.23;;
7657;SDS011;8462;53.156;8.220;2022-09-24T09:26:23;29.30;;;18.90;;
7657;SDS011;8462;53.156;8.220;2022-09-24T09:28:51;29.57;;;19.30;;
7657;SDS011;8462;53.156;8.220;2022-09-24T09:31:31;27.80;;;15.87;;
7657;SDS011;8462;53.156;8.220;2022-09-24T09:34:18;26.53;;;16.80;;
7657;SDS011;8462;53.156;8.220;2022-09-24T09:37:07;26.57;;;17.63;;
7657;SDS011;8462;53.156;8.220;2022-09-24T09:39:43;28.13;;;18.00;;
7657;SDS011;8462;53.156;8.220;2022-09-24T09:42:20;29.83;;;18.97;;
7657;SDS011;8462;53.156;8.220;2022-09-24T09:44:52;30.33;;;18.27;;
7657;SDS011;8462;53.156;8.220;2022-09-24T09:47:21;34.57;;;19.17;;
7657;SDS011;8462;53.156;8.220;2022-09-24T09:49:56;27.07;;;17.67;;
7657;SDS011;8462;53.156;8.220;2022-09-24T09:52:28;28.97;;;17.40;;
7657;SDS011;8462;53.156;8.220;2022-09-24T09:54:59;28.10;;;16.97;;
7657;SDS011;8462;53.156;8.220;2022-09-24T09:57:30;29.77;;;18.30;;
7657;SDS011;8462;53.156;8.220;2022-09-24T09:59:57;30.73;;;17.53;;
7657;SDS011;8462;53.156;8.220;2022-09-24T10:02:26;26.53;;;16.33;;
7657;SDS011;8462;53.156;8.220;2022-09-24T10:04:55;25.80;;;16.10;;
7657;SDS011;8462;53.156;8.220;2022-09-24T10:07:25;29.20;;;16.73;;
7657;SDS011;8462;53.156;8.220;2022-09-24T10:10:01;27.87;;;16.37;;
7657;SDS011;8462;53.156;8.220;2022-09-24T10:12:41;29.50;;;17.37;;
7657;SDS011;8462;53.156;8.220;2022-09-24T10:15:14;28.97;;;15.97;;
7657;SDS011;8462;53.156;8.220;2022-09-24T10:17:42;25.70;;;16.07;;
7657;SDS011;8462;53.156;8.220;2022-09-24T10:20:14;25.77;;;16.57;;
7657;SDS011;8462;53.156;8.220;2022-09-24T10:22:45;27.87;;;16.50;;
7657;SDS011;8462;53.156;8.220;2022-09-24T10:25:17;25.93;;;16.43;;
7657;SDS011;8462;53.156;8.220;2022-09-24T10:27:48;25.53;;;15.97;;
7657;SDS011;8462;53.156;8.220;2022-09-24T10:30:17;22.30;;;14.17;;
7657;SDS011;8462;53.156;8.220;2022-09-24T10:32:58;20.90;;;13.60;;
7657;SDS011;8462;53.156;8.220;2022-09-24T10:35:28;26.93;;;14.47;;
7657;SDS011;8462;53.156;8.220;2022-09-24T10:38:00;26.43;;;15.20;;
7657;SDS011;8462;53.156;8.220;2022-09-24T10:40:30;20.43;;;13.33;;
7657;SDS011;8462;53.156;8.220;2022-09-24T10:43:04;17.83;;;12.10;;
7657;SDS011;8462;53.156;8.220;2022-09-24T10:48:53;23.50;;;13.43;;
7657;SDS011;8462;53.156;8.220;2022-09-24T10:51:27;18.60;;;12.87;;
7657;SDS011;8462;53.156;8.220;2022-09-24T10:54:08;18.77;;;12.27;;
7657;SDS011;8462;53.156;8.220;2022-09-24T10:56:50;22.03;;;13.00;;
7657;SDS011;8462;53.156;8.220;2022-09-24T10:59:24;17.47;;;11.87;;
7657;SDS011;8462;53.156;8.220;2022-09-24T11:02:01;20.03;;;13.00;;
7657;SDS011;8462;53.156;8.220;2022-09-24T11:04:46;20.03;;;12.27;;
7657;SDS011;8462;53.156;8.220;2022-09-24T11:07:29;18.13;;;12.40;;
7657;SDS011;8462;53.156;8.220;2022-09-24T11:10:12;21.53;;;13.30;;
7657;SDS011;8462;53.156;8.220;2022-09-24T11:12:51;17.50;;;11.40;;
7657;SDS011;8462;53.156;8.220;2022-09-24T11:15:31;18.73;;;13.03;;
7657;SDS011;8462;53.156;8.220;2022-09-24T11:18:15;20.53;;;14.10;;
7657;SDS011;8462;53.156;8.220;2022-09-24T11:20:53;23.57;;;13.70;;
7657;SDS011;8462;53.156;8.220;2022-09-24T11:23:34;22.20;;;13.93;;
7657;SDS011;8462;53.156;8.220;2022-09-24T11:26:18;23.67;;;14.20;;
7657;SDS011;8462;53.156;8.220;2022-09-24T11:31:47;21.00;;;13.87;;
7657;SDS011;8462;53.156;8.220;2022-09-24T11:34:26;19.60;;;12.87;;
7657;SDS011;8462;53.156;8.220;2022-09-24T11:37:11;20.23;;;13.57;;
7657;SDS011;8462;53.156;8.220;2022-09-24T11:39:54;19.40;;;13.70;;
7657;SDS011;8462;53.156;8.220;2022-09-24T11:42:37;22.80;;;14.03;;
7657;SDS011;8462;53.156;8.220;2022-09-24T11:45:18;22.07;;;13.77;;
7657;SDS011;8462;53.156;8.220;2022-09-24T11:47:59;21.30;;;14.07;;
7657;SDS011;8462;53.156;8.220;2022-09-24T11:50:48;23.30;;;13.27;;
7657;SDS011;8462;53.156;8.220;2022-09-24T11:53:25;20.80;;;14.13;;
7657;SDS011;8462;53.156;8.220;2022-09-24T11:56:00;21.43;;;13.20;;
7657;SDS011;8462;53.156;8.220;2022-09-24T11:58:33;22.63;;;13.47;;
7657;SDS011;8462;53.156;8.220;2022-09-24T12:01:07;20.47;;;14.03;;
7657;SDS011;8462;53.156;8.220;2022-09-24T12:03:41;26.40;;;13.93;;
7657;SDS011;8462;53.156;8.220;2022-09-24T12:06:12;20.13;;;13.17;;
7657;SDS011;8462;53.156;8.220;2022-09-24T12:08:45;19.00;;;13.00;;
7657;SDS011;8462;53.156;8.220;2022-09-24T12:11:17;24.70;;;14.47;;
7657;SDS011;8462;53.156;8.220;2022-09-24T12:13:54;23.47;;;14.53;;
7657;SDS011;8462;53.156;8.220;2022-09-24T12:16:28;20.97;;;14.20;;
7657;SDS011;8462;53.156;8.220;2022-09-24T12:19:02;19.83;;;12.87;;
7657;SDS011;8462;53.156;8.220;2022-09-24T12:21:35;26.00;;;14.43;;
7657;SDS011;8462;53.156;8.220;2022-09-24T12:24:05;20.50;;;13.20;;
7657;SDS011;8462;53.156;8.220;2022-09-24T12:26:39;20.67;;;12.80;;
7657;SDS011;8462;53.156;8.220;2022-09-24T12:29:26;18.57;;;12.27;;
7657;SDS011;8462;53.156;8.220;2022-09-24T12:32:25;23.97;;;14.30;;
7657;SDS011;8462;53.156;8.220;2022-09-24T12:35:17;21.83;;;13.20;;
7657;SDS011;8462;53.156;8.220;2022-09-24T12:37:52;20.97;;;13.77;;
7657;SDS011;8462;53.156;8.220;2022-09-24T12:40:30;20.73;;;14.03;;
7657;SDS011;8462;53.156;8.220;2022-09-24T12:43:19;22.00;;;12.93;;
7657;SDS011;8462;53.156;8.220;2022-09-24T12:45:54;19.03;;;13.03;;
7657;SDS011;8462;53.156;8.220;2022-09-24T12:48:26;20.20;;;13.00;;
7657;SDS011;8462;53.156;8.220;2022-09-24T12:50:55;19.60;;;14.00;;
7657;SDS011;8462;53.156;8.220;2022-09-24T12:53:24;19.30;;;13.57;;
7657;SDS011;8462;53.156;8.220;2022-09-24T12:55:58;18.13;;;13.10;;
7657;SDS011;8462;53.156;8.220;2022-09-24T12:58:28;20.50;;;13.07;;
7657;SDS011;8462;53.156;8.220;2022-09-24T13:01:12;20.27;;;13.13;;
7657;SDS011;8462;53.156;8.220;2022-09-24T13:04:01;17.17;;;11.90;;
7657;SDS011;8462;53.156;8.220;2022-09-24T13:06:46;19.60;;;11.97;;
7657;SDS011;8462;53.156;8.220;2022-09-24T13:09:30;19.97;;;14.30;;
7657;SDS011;8462;53.156;8.220;2022-09-24T13:12:17;18.20;;;12.17;;
7657;SDS011;8462;53.156;8.220;2022-09-24T13:14:48;17.77;;;11.03;;
7657;SDS011;8462;53.156;8.220;2022-09-24T13:17:19;17.97;;;10.43;;
7657;SDS011;8462;53.156;8.220;2022-09-24T13:19:48;15.17;;;10.00;;
7657;SDS011;8462;53.156;8.220;2022-09-24T13:22:22;17.80;;;11.20;;
7657;SDS011;8462;53.156;8.220;2022-09-24T13:24:53;13.67;;;10.03;;
7657;SDS011;8462;53.156;8.220;2022-09-24T13:27:53;19.23;;;11.87;;
7657;SDS011;8462;53.156;8.220;2022-09-24T13:30:25;17.60;;;11.97;;
7657;SDS011;8462;53.156;8.220;2022-09-24T13:33:01;20.80;;;13.20;;
7657;SDS011;8462;53.156;8.220;2022-09-24T13:35:48;21.37;;;11.73;;
7657;SDS011;8462;53.156;8.220;2022-09-24T13:38:28;18.30;;;11.10;;
7657;SDS011;8462;53.156;8.220;2022-09-24T13:40:59;17.93;;;11.83;;
7657;SDS011;8462;53.156;8.220;2022-09-24T13:43:34;16.23;;;10.83;;
7657;SDS011;8462;53.156;8.220;2022-09-24T13:46:06;15.30;;;9.97;;
7657;SDS011;8462;53.156;8.220;2022-09-24T13:48:37;14.10;;;11.17;;
7657;SDS011;8462;53.156;8.220;2022-09-24T13:51:10;19.20;;;11.83;;
7657;SDS011;8462;53.156;8.220;2022-09-24T13:53:39;13.33;;;9.87;;
7657;SDS011;8462;53.156;8.220;2022-09-24T13:56:11;18.50;;;10.73;;
7657;SDS011;8462;53.156;8.220;2022-09-24T13:58:39;13.73;;;10.10;;
7657;SDS011;8462;53.156;8.220;2022-09-24T14:01:10;15.47;;;10.17;;
7657;SDS011;8462;53.156;8.220;2022-09-24T14:03:40;13.77;;;8.93;;
7657;SDS011;8462;53.156;8.220;2022-09-24T14:06:10;11.90;;;9.27;;
7657;SDS011;8462;53.156;8.220;2022-09-24T14:08:39;13.67;;;9.43;;
7657;SDS011;8462;53.156;8.220;2022-09-24T14:11:12;13.07;;;8.23;;
7657;SDS011;8462;53.156;8.220;2022-09-24T14:13:40;10.50;;;7.33;;
7657;SDS011;8462;53.156;8.220;2022-09-24T14:16:12;11.30;;;7.53;;
7657;SDS011;8462;53.156;8.220;2022-09-24T14:18:40;10.63;;;7.53;;
7657;SDS011;8462;53.156;8.220;2022-09-24T14:21:09;11.67;;;8.03;;
7657;SDS011;8462;53.156;8.220;2022-09-24T14:23:41;12.40;;;8.20;;
7657;SDS011;8462;53.156;8.220;2022-09-24T14:26:14;12.33;;;8.37;;
7657;SDS011;8462;53.156;8.220;2022-09-24T14:28:48;11.43;;;7.73;;
7657;SDS011;8462;53.156;8.220;2022-09-24T14:31:15;11.33;;;8.33;;
7657;SDS011;8462;53.156;8.220;2022-09-24T14:33:42;10.77;;;7.90;;
7657;SDS011;8462;53.156;8.220;2022-09-24T14:36:10;12.37;;;8.33;;
7657;SDS011;8462;53.156;8.220;2022-09-24T14:38:44;10.23;;;7.03;;
7657;SDS011;8462;53.156;8.220;2022-09-24T14:41:16;10.20;;;6.77;;
7657;SDS011;8462;53.156;8.220;2022-09-24T14:43:47;10.13;;;7.07;;
7657;SDS011;8462;53.156;8.220;2022-09-24T14:46:18;9.30;;;6.47;;
7657;SDS011;8462;53.156;8.220;2022-09-24T14:48:48;9.10;;;6.40;;
7657;SDS011;8462;53.156;8.220;2022-09-24T14:51:23;7.80;;;5.70;;
7657;SDS011;8462;53.156;8.220;2022-09-24T14:53:58;7.33;;;5.60;;
7657;SDS011;8462;53.156;8.220;2022-09-24T14:56:27;7.77;;;5.73;;
7657;SDS011;8462;53.156;8.220;2022-09-24T14:58:55;6.33;;;4.93;;
7657;SDS011;8462;53.156;8.220;2022-09-24T15:01:23;5.63;;;4.70;;
7657;SDS011;8462;53.156;8.220;2022-09-24T15:03:56;5.03;;;4.00;;
7657;SDS011;8462;53.156;8.220;2022-09-24T15:06:26;3.73;;;3.40;;
7657;SDS011;8462;53.156;8.220;2022-09-24T15:08:59;3.90;;;3.50;;
7657;SDS011;8462;53.156;8.220;2022-09-24T15:11:28;3.57;;;3.03;;
7657;SDS011;8462;53.156;8.220;2022-09-24T15:13:59;3.30;;;3.00;;
7657;SDS011;8462;53.156;8.220;2022-09-24T15:16:29;3.70;;;2.77;;
7657;SDS011;8462;53.156;8.220;2022-09-24T15:19:00;3.43;;;2.23;;
7657;SDS011;8462;53.156;8.220;2022-09-24T15:21:41;3.20;;;2.20;;
7657;SDS011;8462;53.156;8.220;2022-09-24T15:24:08;2.63;;;1.93;;